Time;durP1;ratioP1;P1;durP2;ratioP2;P2;SDS_P1;SDS_P2;PMS_P1;PMS_P2;Temp;Humidity;BMP_temperature;BMP_pressure;BME280_temperature;BME280_humidity;BME280_pressure;Samples;Min_cycle;Max_cycle;Signal;HPM_P1;HPM_P2
2021/11/26 00:00:51;;;;;;;;;7.25;6.00;;;;;8.94;62.84;100992.25;5080510;28;45199;-83
2021/11/26 00:03:17;;;;;;;;;7.00;6.75;;;;;8.88;62.35;100982.75;5079716;27;46483;-83
2021/11/26 00:05:42;;;;;;;;;11.50;5.75;;;;;8.86;62.95;100980.16;5080484;27;45389;-82
2021/11/26 00:08:08;;;;;;;;;7.50;7.00;;;;;8.81;63.09;100981.16;5079667;27;45493;-82
2021/11/26 00:10:33;;;;;;;;;4.00;4.00;;;;;8.84;62.88;100983.72;5089903;27;45183;-83
2021/11/26 00:13:02;;;;;;;;;7.00;7.00;;;;;8.86;62.78;100979.28;5079238;27;46483;-83
2021/11/26 00:17:57;;;;;;;;;7.75;6.00;;;;;8.84;62.79;100981.09;5080502;27;45386;-82
2021/11/26 00:20:22;;;;;;;;;9.50;6.50;;;;;8.78;62.69;100972.47;5080395;27;45218;-82
2021/11/26 00:22:49;;;;;;;;;8.75;7.00;;;;;8.80;62.66;100966.31;5072315;27;47326;-82
2021/11/26 00:25:14;;;;;;;;;9.75;4.50;;;;;8.81;62.77;100975.91;5091451;27;45978;-82
2021/11/26 00:27:40;;;;;;;;;7.25;7.25;;;;;8.75;62.85;100966.41;5079970;27;45204;-82
2021/11/26 00:30:07;;;;;;;;;8.00;6.00;;;;;8.75;62.77;100964.66;5072690;27;45609;-82
2021/11/26 00:32:33;;;;;;;;;9.75;8.25;;;;;8.75;62.78;100969.03;5080087;27;45368;-82
2021/11/26 00:34:58;;;;;;;;;11.00;10.00;;;;;8.75;62.26;100969.91;5080221;27;45472;-82
2021/11/26 00:37:24;;;;;;;;;6.00;6.00;;;;;8.74;62.84;100972.56;5078860;27;45317;-84
2021/11/26 00:39:50;;;;;;;;;7.75;5.75;;;;;8.73;62.92;100965.59;5079859;27;46577;-86
2021/11/26 00:42:16;;;;;;;;;7.25;6.00;;;;;8.74;63.00;100965.53;5079929;27;45257;-86
2021/11/26 00:44:41;;;;;;;;;9.75;9.75;;;;;8.74;62.55;100965.53;5084900;27;45227;-86
2021/11/26 00:47:07;;;;;;;;;11.00;8.00;;;;;8.72;62.87;100953.38;5083708;27;46871;-86
2021/11/26 00:49:33;;;;;;;;;10.00;7.50;;;;;8.73;62.28;100957.72;5079905;27;45416;-85
2021/11/26 00:51:58;;;;;;;;;11.25;8.00;;;;;8.71;62.63;100955.16;5079683;27;45424;-85
2021/11/26 00:54:23;;;;;;;;;10.75;6.50;;;;;8.71;62.87;100956.91;5079992;27;45152;-85
2021/11/26 00:56:49;;;;;;;;;9.25;5.75;;;;;8.68;62.82;100955.19;5073309;28;46322;-87
2021/11/26 00:59:14;;;;;;;;;10.00;8.75;;;;;8.64;62.65;100953.56;5078873;28;45671;-86
2021/11/26 01:01:40;;;;;;;;;13.50;7.75;;;;;8.60;62.70;100957.09;5079668;27;45469;-83
2021/11/26 01:04:05;;;;;;;;;7.25;6.50;;;;;8.59;63.01;100951.03;5079015;27;45510;-84
2021/11/26 01:06:32;;;;;;;;;15.50;7.25;;;;;8.62;62.68;100950.06;5079738;27;45561;-86
2021/11/26 01:08:57;;;;;;;;;8.25;8.25;;;;;8.60;63.00;100944.00;5079419;28;45464;-88
2021/11/26 01:11:23;;;;;;;;;8.25;7.50;;;;;8.62;62.61;100942.22;5079708;27;46275;-86
2021/11/26 01:13:49;;;;;;;;;9.00;8.00;;;;;8.63;62.87;100941.34;5078534;27;45384;-87
2021/11/26 01:16:15;;;;;;;;;7.25;7.00;;;;;8.65;62.77;100944.78;5079258;27;47212;-87
2021/11/26 01:18:40;;;;;;;;;8.75;6.75;;;;;8.65;62.85;100944.78;5071476;27;45637;-87
2021/11/26 01:21:07;;;;;;;;;6.75;5.50;;;;;8.65;62.92;100937.78;5081123;28;46174;-86
2021/11/26 01:23:34;;;;;;;;;11.00;7.00;;;;;8.66;62.19;100939.53;5082080;27;45176;-81
2021/11/26 01:26:00;;;;;;;;;8.75;7.50;;;;;8.66;62.44;100943.91;5072281;27;45543;-82
2021/11/26 01:28:25;;;;;;;;;9.00;6.00;;;;;8.66;62.28;100942.16;5083042;28;45349;-82
2021/11/26 01:30:51;;;;;;;;;14.75;9.75;;;;;8.67;62.61;100932.50;5082349;27;46630;-82
2021/11/26 01:33:19;;;;;;;;;7.50;7.25;;;;;8.66;62.68;100925.56;5082894;28;45407;-83
2021/11/26 01:35:49;;;;;;;;;8.75;8.00;;;;;8.64;62.22;100928.19;5082119;27;45466;-83
2021/11/26 01:38:14;;;;;;;;;6.75;6.00;;;;;8.66;62.15;100931.66;5081056;27;45523;-83
2021/11/26 01:40:41;;;;;;;;;14.00;7.50;;;;;8.65;62.31;100927.31;5082382;27;45259;-83
2021/11/26 01:43:09;;;;;;;;;11.75;8.25;;;;;8.68;62.56;100929.00;5082759;28;45861;-83
2021/11/26 01:45:53;;;;;;;;;13.00;11.00;;;;;8.69;62.32;100925.50;5078699;27;45501;-85
2021/11/26 01:48:21;;;;;;;;;9.25;8.25;;;;;8.69;62.00;100922.00;5082594;27;45562;-85
2021/11/26 01:50:48;;;;;;;;;10.50;6.75;;;;;8.67;62.06;100916.78;5082635;27;45437;-85
2021/11/26 01:53:13;;;;;;;;;8.25;8.00;;;;;8.64;62.02;100912.47;5071159;28;45222;-84
2021/11/26 01:55:40;;;;;;;;;5.00;5.00;;;;;8.64;61.61;100916.88;5068311;28;45330;-84
2021/11/26 01:58:10;;;;;;;;;12.75;7.50;;;;;8.62;61.60;100910.78;5077612;28;45401;-84
2021/11/26 02:00:36;;;;;;;;;8.00;6.25;;;;;8.57;62.30;100916.09;5072435;28;47116;-85
2021/11/26 02:03:02;;;;;;;;;7.50;6.50;;;;;8.58;62.35;100903.84;5098017;27;45347;-82
2021/11/26 02:05:27;;;;;;;;;7.75;6.75;;;;;8.57;62.21;100894.28;5082540;27;45201;-82
2021/11/26 02:07:53;;;;;;;;;7.75;5.75;;;;;8.59;62.05;100885.53;5082041;27;45279;-83
2021/11/26 02:10:19;;;;;;;;;11.00;6.00;;;;;8.60;62.07;100879.38;5081822;27;45413;-83
2021/11/26 02:12:44;;;;;;;;;7.25;6.25;;;;;8.60;62.25;100879.38;5081872;28;45232;-83
2021/11/26 02:15:16;;;;;;;;;5.75;5.50;;;;;8.61;62.24;100880.25;5082373;27;45207;-83
2021/11/26 02:17:42;;;;;;;;;8.75;7.25;;;;;8.57;61.84;100868.09;5082210;27;45448;-83
2021/11/26 02:20:16;;;;;;;;;9.00;6.50;;;;;8.56;62.01;100875.06;5082240;27;46370;-83
2021/11/26 02:22:42;;;;;;;;;8.00;5.00;;;;;8.57;62.02;100868.09;5078649;28;45176;-83
2021/11/26 02:25:08;;;;;;;;;10.00;7.00;;;;;8.55;61.67;100861.09;5088511;27;45680;-84
2021/11/26 02:27:35;;;;;;;;;9.50;7.25;;;;;8.57;61.95;100852.38;5097616;27;45391;-83
2021/11/26 02:30:05;;;;;;;;;8.25;5.25;;;;;8.55;62.12;100848.00;5081827;27;45822;-84
2021/11/26 02:32:30;;;;;;;;;8.25;5.50;;;;;8.56;62.01;100846.25;5089315;27;45346;-84
2021/11/26 02:34:55;;;;;;;;;5.00;5.00;;;;;8.57;61.77;100847.13;5081818;27;45267;-84
2021/11/26 02:37:21;;;;;;;;;8.50;6.00;;;;;8.56;62.12;100835.78;5081397;27;45582;-84
2021/11/26 02:39:46;;;;;;;;;7.00;5.00;;;;;8.56;61.93;100835.78;5073721;28;46958;-85
2021/11/26 02:42:25;;;;;;;;;8.25;6.75;;;;;8.52;61.69;100832.34;5080775;27;45311;-84
2021/11/26 02:44:51;;;;;;;;;18.25;12.75;;;;;8.55;61.50;100839.28;5081572;27;45378;-82
2021/11/26 02:47:16;;;;;;;;;10.50;8.00;;;;;8.53;61.72;100841.94;5081747;28;45410;-82
2021/11/26 02:49:42;;;;;;;;;12.25;10.25;;;;;8.53;61.72;100836.72;5080785;27;45319;-83
2021/11/26 02:52:07;;;;;;;;;18.00;14.75;;;;;8.51;61.97;100832.41;5070697;28;45496;-87
2021/11/26 02:54:33;;;;;;;;;10.50;9.50;;;;;8.51;62.35;100829.78;5078196;28;45557;-87
2021/11/26 02:56:58;;;;;;;;;19.00;14.00;;;;;8.49;62.54;100837.69;5081569;27;45464;-87
2021/11/26 02:59:24;;;;;;;;;12.25;9.75;;;;;8.46;62.02;100823.78;5079097;27;46661;-88
2021/11/26 03:01:49;;;;;;;;;10.00;8.75;;;;;8.44;62.26;100815.97;5080954;27;45361;-87
2021/11/26 03:04:14;;;;;;;;;13.00;9.50;;;;;8.44;62.06;100815.97;5081069;27;45373;-86
2021/11/26 03:06:40;;;;;;;;;14.50;10.50;;;;;8.42;62.29;100813.34;5089468;27;45414;-85
2021/11/26 03:09:05;;;;;;;;;14.75;9.75;;;;;8.38;62.25;100809.09;5081507;27;47128;-85
2021/11/26 03:11:31;;;;;;;;;9.25;7.00;;;;;8.37;62.71;100809.16;5101021;27;45935;-84
2021/11/26 03:13:56;;;;;;;;;8.25;8.00;;;;;8.34;62.50;100799.59;5090251;27;45444;-84
2021/11/26 03:16:21;;;;;;;;;13.50;11.50;;;;;8.33;62.55;100793.50;5079865;27;45215;-84
2021/11/26 03:18:47;;;;;;;;;12.75;9.75;;;;;8.31;62.39;100789.19;5081009;27;45258;-84
2021/11/26 03:21:12;;;;;;;;;13.25;9.75;;;;;8.31;62.39;100789.19;5096827;27;45270;-84
2021/11/26 03:23:38;;;;;;;;;12.00;10.75;;;;;8.30;62.50;100792.69;5081466;27;45214;-84
2021/11/26 03:26:04;;;;;;;;;18.25;9.25;;;;;8.28;62.52;100784.88;5085804;27;45204;-84
2021/11/26 03:28:29;;;;;;;;;11.25;7.75;;;;;8.25;63.09;100786.72;5080915;27;46319;-85
2021/11/26 03:30:55;;;;;;;;;15.50;11.25;;;;;8.21;63.01;100781.53;5080680;27;45176;-85
2021/11/26 03:33:21;;;;;;;;;13.25;9.75;;;;;8.17;62.56;100779.03;5081493;27;45473;-87
2021/11/26 03:35:47;;;;;;;;;12.50;8.75;;;;;8.14;63.29;100773.84;5080785;27;45344;-85
2021/11/26 03:38:13;;;;;;;;;14.75;11.50;;;;;8.12;62.84;100763.41;5078621;28;46357;-86
2021/11/26 03:40:38;;;;;;;;;12.00;9.50;;;;;8.09;62.99;100764.34;5080819;27;45333;-83
2021/11/26 03:43:05;;;;;;;;;8.00;6.50;;;;;8.07;62.73;100760.91;5096959;27;45436;-89
2021/11/26 03:45:30;;;;;;;;;11.75;9.00;;;;;8.03;63.24;100747.88;5079042;28;46228;-89
2021/11/26 03:47:57;;;;;;;;;11.50;11.25;;;;;8.01;63.03;100749.69;5079506;27;46009;-88
2021/11/26 03:50:23;;;;;;;;;16.25;11.25;;;;;7.96;63.57;100740.19;5080725;27;45779;-89
2021/11/26 03:52:50;;;;;;;;;14.25;11.25;;;;;7.98;63.45;100745.38;5080792;27;45239;-89
2021/11/26 03:55:19;;;;;;;;;12.25;10.50;;;;;7.91;63.44;100734.19;5080480;27;45496;-89
2021/11/26 03:57:46;;;;;;;;;12.50;8.75;;;;;7.91;63.47;100728.97;5079340;27;45570;-89
2021/11/26 04:00:12;;;;;;;;;7.25;7.25;;;;;7.88;63.29;100731.63;5080400;27;45566;-89
2021/11/26 04:02:37;;;;;;;;;12.75;11.25;;;;;7.83;63.75;100726.50;5080846;27;45613;-89
2021/11/26 04:05:04;;;;;;;;;10.50;7.50;;;;;7.79;63.32;100722.25;5077630;28;45337;-89
2021/11/26 04:07:29;;;;;;;;;9.75;9.50;;;;;7.77;63.34;100718.81;5080249;27;45277;-89
2021/11/26 04:09:56;;;;;;;;;9.75;8.25;;;;;7.76;63.81;100727.53;5080714;27;45223;-89
2021/11/26 04:12:22;;;;;;;;;14.00;10.00;;;;;7.73;63.89;100719.75;5080813;27;45387;-89
2021/11/26 04:14:53;;;;;;;;;18.00;13.00;;;;;7.69;63.49;100724.19;5077942;28;45884;-89
2021/11/26 04:17:18;;;;;;;;;14.25;11.00;;;;;7.65;63.49;100712.91;5079032;28;46725;-87
2021/11/26 04:19:44;;;;;;;;;11.50;9.50;;;;;7.60;63.65;100706.06;5078849;28;45231;-87
2021/11/26 04:22:09;;;;;;;;;12.50;8.50;;;;;7.57;63.81;100706.13;5080450;27;45218;-87
2021/11/26 04:24:34;;;;;;;;;12.00;8.00;;;;;7.56;63.98;100702.66;5079146;27;45430;-87
2021/11/26 04:27:00;;;;;;;;;13.50;11.00;;;;;7.57;63.76;100704.38;5080191;27;45321;-89
2021/11/26 04:29:25;;;;;;;;;11.75;10.50;;;;;7.55;64.24;100698.31;5080067;28;45215;-89
2021/11/26 04:31:51;;;;;;;;;11.00;8.50;;;;;7.53;64.40;100694.88;5069661;27;45586;-89
2021/11/26 04:34:16;;;;;;;;;9.75;9.00;;;;;7.56;64.30;100699.16;5079849;27;45470;-89
2021/11/26 04:36:41;;;;;;;;;9.00;9.00;;;;;7.54;64.56;100694.84;5078427;27;45542;-89
2021/11/26 04:39:07;;;;;;;;;10.75;9.25;;;;;7.54;64.82;100691.34;5079613;27;45411;-89
2021/11/26 04:41:32;;;;;;;;;11.75;7.00;;;;;7.57;64.30;100691.31;5072281;27;45380;-89
2021/11/26 04:43:58;;;;;;;;;12.00;9.00;;;;;7.55;64.48;100685.25;5079993;27;45413;-83
2021/11/26 04:46:24;;;;;;;;;11.25;7.00;;;;;7.57;64.95;100675.59;5079435;27;46424;-84
2021/11/26 04:48:49;;;;;;;;;9.00;8.75;;;;;7.58;64.89;100669.47;5079940;28;45436;-84
2021/11/26 04:51:14;;;;;;;;;7.50;7.50;;;;;7.59;64.96;100665.09;5068847;27;45457;-85
2021/11/26 04:53:40;;;;;;;;;10.75;10.75;;;;;7.60;64.91;100662.47;5076507;28;45510;-85
2021/11/26 04:56:05;;;;;;;;;10.75;8.75;;;;;7.61;65.04;100655.47;5078977;27;46212;-84
2021/11/26 04:58:37;;;;;;;;;13.75;9.75;;;;;7.61;64.82;100652.84;5079341;27;45250;-84
2021/11/26 05:01:04;;;;;;;;;14.00;11.50;;;;;7.63;65.07;100657.16;5077707;27;45497;-84
2021/11/26 05:03:30;;;;;;;;;11.25;11.25;;;;;7.65;64.77;100667.59;5079664;28;45650;-84
2021/11/26 05:05:56;;;;;;;;;18.75;16.75;;;;;7.62;64.63;100652.84;5079369;27;45224;-84
2021/11/26 05:08:22;;;;;;;;;16.75;14.75;;;;;7.63;64.53;100651.09;5079638;27;45159;-86
2021/11/26 05:10:52;;;;;;;;;21.75;15.25;;;;;7.64;65.03;100661.50;5077683;27;45217;-86
2021/11/26 05:13:20;;;;;;;;;16.00;13.00;;;;;7.65;64.54;100657.97;5079537;27;45423;-88
2021/11/26 05:15:45;;;;;;;;;15.00;12.50;;;;;7.63;64.46;100646.69;5078490;27;46168;-87
2021/11/26 05:18:11;;;;;;;;;10.25;9.75;;;;;7.65;64.98;100644.06;5079729;27;45266;-87
2021/11/26 05:20:36;;;;;;;;;15.75;12.25;;;;;7.63;64.34;100636.22;5078762;27;45212;-87
2021/11/26 05:23:02;;;;;;;;;16.50;14.00;;;;;7.64;64.03;100639.72;5074689;28;46440;-87
2021/11/26 05:25:28;;;;;;;;;12.00;10.50;;;;;7.65;64.50;100636.22;5073475;28;46018;-87
2021/11/26 05:27:53;;;;;;;;;18.25;15.00;;;;;7.61;64.26;100632.78;5090712;27;45321;-86
2021/11/26 05:30:19;;;;;;;;;16.75;13.25;;;;;7.61;64.75;100632.78;5078331;27;45244;-83
2021/11/26 05:32:44;;;;;;;;;22.75;17.00;;;;;7.57;64.83;100610.22;5079077;28;45187;-83
2021/11/26 05:35:12;;;;;;;;;17.50;14.25;;;;;7.60;64.42;100609.28;5079053;27;45527;-84
2021/11/26 05:37:38;;;;;;;;;14.75;14.75;;;;;7.61;64.20;100608.38;5092420;27;45429;-83
2021/11/26 05:40:06;;;;;;;;;15.75;13.75;;;;;7.61;64.72;100605.75;5082258;27;45370;-89
2021/11/26 05:42:32;;;;;;;;;21.00;15.50;;;;;7.60;64.48;100599.69;5078290;27;45903;-83
2021/11/26 05:44:58;;;;;;;;;20.00;16.75;;;;;7.56;63.98;100587.56;5074956;27;46978;-86
2021/11/26 05:47:23;;;;;;;;;14.50;14.25;;;;;7.56;64.70;100582.31;5078495;27;45419;-87
2021/11/26 05:49:49;;;;;;;;;20.75;15.75;;;;;7.54;64.90;100577.13;5077979;27;45219;-88
2021/11/26 05:52:14;;;;;;;;;16.75;14.25;;;;;7.53;64.65;100575.41;5079212;27;45164;-89
2021/11/26 05:54:40;;;;;;;;;21.25;18.00;;;;;7.56;64.72;100571.88;5078911;28;45336;-89
2021/11/26 05:57:05;;;;;;;;;22.50;16.50;;;;;7.55;64.34;100567.53;5079310;27;45444;-87
2021/11/26 05:59:31;;;;;;;;;22.00;18.25;;;;;7.54;64.35;100571.03;5091294;27;45535;-82
2021/11/26 06:01:58;;;;;;;;;18.75;15.25;;;;;7.55;64.69;100572.78;5095163;27;47128;-81
2021/11/26 06:04:27;;;;;;;;;20.25;19.00;;;;;7.57;64.71;100573.59;5082531;28;46066;-81
2021/11/26 06:06:52;;;;;;;;;25.25;20.25;;;;;7.58;64.56;100569.22;5080804;27;46037;-80
2021/11/26 06:09:18;;;;;;;;;22.75;18.50;;;;;7.52;64.85;100549.31;5081636;27;45376;-79
2021/11/26 06:11:43;;;;;;;;;21.00;18.75;;;;;7.53;64.47;100548.41;5080043;28;47433;-78
2021/11/26 06:14:08;;;;;;;;;19.25;15.25;;;;;7.56;64.73;100542.22;5098049;27;48257;-78
2021/11/26 06:16:34;;;;;;;;;22.25;18.50;;;;;7.56;64.47;100542.22;5080932;27;46523;-79
2021/11/26 06:18:59;;;;;;;;;21.00;17.50;;;;;7.53;64.32;100537.97;5081969;27;45293;-82
2021/11/26 06:21:25;;;;;;;;;19.75;16.75;;;;;7.52;64.09;100544.06;5080603;28;45600;-80
2021/11/26 06:23:50;;;;;;;;;20.75;18.25;;;;;7.51;64.19;100534.50;5078760;28;45433;-80
2021/11/26 06:26:15;;;;;;;;;19.00;13.50;;;;;7.51;64.20;100529.25;5080880;27;45437;-80
2021/11/26 06:28:41;;;;;;;;;12.25;12.00;;;;;7.50;63.97;100533.66;5082433;27;45664;-80
2021/11/26 06:31:06;;;;;;;;;19.25;18.25;;;;;7.51;64.20;100527.50;5080013;28;45444;-81
2021/11/26 06:33:31;;;;;;;;;21.00;19.00;;;;;7.51;64.34;100531.88;5070619;27;46871;-81
2021/11/26 06:35:57;;;;;;;;;18.00;15.50;;;;;7.51;64.18;100517.03;5079741;28;45287;-81
2021/11/26 06:38:23;;;;;;;;;16.75;15.50;;;;;7.51;64.17;100510.94;5079885;27;45554;-81
2021/11/26 06:40:48;;;;;;;;;18.50;16.50;;;;;7.51;64.27;100513.56;5079053;27;45578;-80
2021/11/26 06:43:14;;;;;;;;;17.00;15.75;;;;;7.53;64.23;100509.19;5078518;28;45726;-80
2021/11/26 06:45:39;;;;;;;;;16.50;13.50;;;;;7.55;64.83;100504.78;5078983;28;45347;-90
2021/11/26 06:48:05;;;;;;;;;14.50;13.50;;;;;7.56;64.44;100505.59;5095358;27;45577;-81
2021/11/26 06:50:30;;;;;;;;;18.00;15.00;;;;;7.53;64.36;100490.88;5075711;27;45418;-81
2021/11/26 06:52:56;;;;;;;;;12.00;12.00;;;;;7.52;63.71;100486.53;5081650;27;45821;-80
2021/11/26 06:55:22;;;;;;;;;17.25;14.50;;;;;7.53;64.31;100477.78;5080049;28;45504;-80
2021/11/26 06:57:48;;;;;;;;;14.50;13.25;;;;;7.52;63.93;100473.44;5080927;27;45416;-80
2021/11/26 07:00:17;;;;;;;;;11.75;11.75;;;;;7.56;63.79;100472.47;5071762;27;45250;-80
2021/11/26 07:02:42;;;;;;;;;12.00;9.75;;;;;7.56;63.93;100466.38;5093511;27;48083;-80
2021/11/26 07:05:09;;;;;;;;;15.00;14.00;;;;;7.53;63.46;100468.16;5074962;28;45973;-80
2021/11/26 07:07:35;;;;;;;;;11.50;11.50;;;;;7.51;63.86;100458.63;5078239;28;46478;-80
2021/11/26 07:10:00;;;;;;;;;15.25;12.50;;;;;7.50;63.75;100459.56;5079827;27;45447;-80
2021/11/26 07:12:25;;;;;;;;;15.25;11.75;;;;;7.46;63.52;100452.69;5079675;27;45452;-80
2021/11/26 07:14:51;;;;;;;;;12.25;11.25;;;;;7.49;63.63;100452.59;5090878;27;45432;-80
2021/11/26 07:17:16;;;;;;;;;12.00;10.75;;;;;7.47;64.00;100447.41;5079798;28;45425;-79
2021/11/26 07:19:46;;;;;;;;;11.75;10.50;;;;;7.45;63.37;100446.59;5080904;28;45348;-80
2021/11/26 07:22:12;;;;;;;;;14.75;13.00;;;;;7.46;63.90;100444.84;5083890;27;46707;-79
2021/11/26 07:24:37;;;;;;;;;11.50;10.75;;;;;7.43;63.98;100441.38;5079613;27;45356;-79
2021/11/26 07:27:04;;;;;;;;;13.00;10.00;;;;;7.46;63.88;100431.78;5080413;27;45352;-80
2021/11/26 07:29:29;;;;;;;;;14.25;12.50;;;;;7.45;63.75;100415.22;5082552;27;46234;-80
2021/11/26 07:31:55;;;;;;;;;15.75;11.50;;;;;7.46;63.59;100422.16;5078731;27;45403;-79
2021/11/26 07:34:20;;;;;;;;;19.00;15.50;;;;;7.46;63.81;100418.69;5077566;28;45351;-80
2021/11/26 07:36:47;;;;;;;;;12.50;11.25;;;;;7.46;63.63;100406.47;5077408;28;45312;-79
2021/11/26 07:39:12;;;;;;;;;12.75;12.75;;;;;7.49;63.69;100408.13;5081697;27;45575;-80
2021/11/26 07:41:38;;;;;;;;;18.25;13.25;;;;;7.51;63.68;100406.34;5075550;27;45232;-80
2021/11/26 07:44:05;;;;;;;;;21.50;12.50;;;;;7.50;63.81;100402.03;5061574;27;45440;-80
2021/11/26 07:46:30;;;;;;;;;15.75;12.75;;;;;7.52;64.08;100402.84;5077200;28;45281;-80
2021/11/26 07:48:55;;;;;;;;;18.75;14.25;;;;;7.53;63.97;100399.34;5076060;27;45425;-80
2021/11/26 07:51:21;;;;;;;;;10.50;10.25;;;;;7.56;64.10;100403.59;5078798;27;45526;-80
2021/11/26 07:53:46;;;;;;;;;12.75;11.75;;;;;7.54;63.99;100398.41;5077098;28;45494;-80
2021/11/26 07:56:11;;;;;;;;;16.25;13.25;;;;;7.55;63.98;100394.91;5096305;27;45492;-80
2021/11/26 07:58:37;;;;;;;;;15.00;13.75;;;;;7.58;64.13;100392.19;5074735;28;46146;-80
2021/11/26 08:01:02;;;;;;;;;12.50;11.75;;;;;7.63;63.39;100392.94;5080595;27;45362;-80
2021/11/26 08:03:28;;;;;;;;;15.50;12.00;;;;;7.63;64.14;100392.94;5081185;27;45299;-80
2021/11/26 08:05:53;;;;;;;;;12.50;11.75;;;;;7.68;63.13;100395.44;5085271;27;45359;-80
2021/11/26 08:08:19;;;;;;;;;14.00;13.00;;;;;7.68;63.23;100384.97;5078932;28;45399;-80
2021/11/26 08:10:44;;;;;;;;;16.75;12.00;;;;;7.73;63.76;100382.25;5079155;28;46284;-80
2021/11/26 08:13:10;;;;;;;;;14.75;13.00;;;;;7.75;63.15;100365.59;5071283;27;45535;-79
2021/11/26 08:15:36;;;;;;;;;12.00;12.00;;;;;7.77;63.43;100360.34;5078966;28;45452;-79
2021/11/26 08:18:05;;;;;;;;;12.50;12.00;;;;;7.79;63.11;100358.53;5080458;27;45511;-80
2021/11/26 08:20:31;;;;;;;;;14.50;13.75;;;;;7.81;63.34;100351.50;5078514;28;45626;-80
2021/11/26 08:22:56;;;;;;;;;13.50;12.00;;;;;7.81;62.95;100340.16;5078962;28;45598;-80
2021/11/26 08:25:25;;;;;;;;;13.00;12.00;;;;;7.82;63.25;100339.28;5075725;28;45442;-80
2021/11/26 08:27:53;;;;;;;;;16.00;14.50;;;;;7.84;63.58;100338.34;5077999;28;45434;-80
2021/11/26 08:30:19;;;;;;;;;14.25;13.00;;;;;7.85;63.31;100337.41;5079008;27;46387;-79
2021/11/26 08:32:45;;;;;;;;;14.75;11.75;;;;;7.90;62.92;100336.44;5066368;28;45726;-79
2021/11/26 08:35:11;;;;;;;;;16.25;14.75;;;;;7.93;62.79;100331.97;5067198;27;45275;-79
2021/11/26 08:37:36;;;;;;;;;14.25;13.00;;;;;7.94;63.00;100338.94;5078400;27;47013;-79
2021/11/26 08:40:03;;;;;;;;;8.00;7.00;;;;;7.96;62.57;100338.88;5084449;27;45620;-79
2021/11/26 08:42:29;;;;;;;;;7.75;7.75;;;;;7.95;62.39;100327.53;5078027;28;45812;-79
2021/11/26 08:44:55;;;;;;;;;15.00;13.00;;;;;7.97;62.72;100332.75;5070156;27;45412;-80
2021/11/26 08:47:20;;;;;;;;;16.75;12.75;;;;;8.00;62.41;100332.63;5064948;28;46221;-80
2021/11/26 08:49:46;;;;;;;;;12.00;10.25;;;;;8.00;62.63;100330.03;5076071;27;46113;-80
2021/11/26 08:52:12;;;;;;;;;13.75;10.75;;;;;8.03;63.29;100318.63;5071978;28;45719;-79
2021/11/26 08:54:38;;;;;;;;;15.50;11.25;;;;;8.04;61.51;100315.97;5079891;27;45426;-80
2021/11/26 08:57:04;;;;;;;;;10.25;9.25;;;;;8.03;62.64;100311.63;5095346;27;46186;-80
2021/11/26 08:59:30;;;;;;;;;16.75;11.75;;;;;8.04;62.40;100315.09;5077553;28;47092;-79
2021/11/26 09:01:55;;;;;;;;;13.25;9.25;;;;;8.07;62.60;100318.50;5078489;27;45373;-79
2021/11/26 09:04:22;;;;;;;;;11.50;10.50;;;;;8.09;62.49;100308.84;5078444;28;45472;-79
2021/11/26 09:06:49;;;;;;;;;11.25;10.50;;;;;8.10;62.11;100309.69;5077766;28;46800;-79
2021/11/26 09:09:15;;;;;;;;;8.75;8.75;;;;;8.13;61.75;100306.09;5078388;27;46314;-79
2021/11/26 09:11:41;;;;;;;;;12.00;11.25;;;;;8.15;62.16;100293.84;5078459;28;45340;-79
2021/11/26 09:14:06;;;;;;;;;9.75;9.50;;;;;8.17;61.81;100302.53;5079609;27;45285;-78
2021/11/26 09:16:33;;;;;;;;;13.75;12.50;;;;;8.18;61.92;100283.28;5077237;27;45331;-78
2021/11/26 09:18:59;;;;;;;;;8.75;8.00;;;;;8.18;61.78;100286.75;5079848;27;46957;-78
2021/11/26 09:21:24;;;;;;;;;11.25;9.50;;;;;8.21;61.76;100275.34;5078968;28;45194;-78
2021/11/26 09:23:50;;;;;;;;;16.75;13.00;;;;;8.22;62.13;100267.41;5082842;27;45274;-79
2021/11/26 09:26:16;;;;;;;;;9.25;8.75;;;;;8.22;61.88;100256.94;5073883;27;46139;-78
2021/11/26 09:28:41;;;;;;;;;7.00;7.00;;;;;8.25;61.81;100253.38;5079193;28;45625;-78
2021/11/26 09:31:07;;;;;;;;;12.50;9.75;;;;;8.25;61.67;100253.38;5077549;28;45585;-78
2021/11/26 09:33:35;;;;;;;;;10.75;7.25;;;;;8.27;61.91;100245.50;5076030;27;45577;-78
2021/11/26 09:36:06;;;;;;;;;13.75;12.00;;;;;8.30;61.37;100234.91;5088103;27;46207;-78
2021/11/26 09:38:33;;;;;;;;;10.00;8.25;;;;;8.31;61.63;100234.88;5082418;27;46814;-80
2021/11/26 09:41:01;;;;;;;;;10.25;8.75;;;;;8.31;61.36;100227.03;5077440;27;45390;-79
2021/11/26 09:43:27;;;;;;;;;13.00;8.00;;;;;8.32;61.73;100225.25;5095893;27;45264;-78
2021/11/26 09:45:53;;;;;;;;;8.25;8.25;;;;;8.33;61.12;100230.44;5082731;27;45401;-79
2021/11/26 09:48:19;;;;;;;;;13.00;9.50;;;;;8.34;60.87;100215.59;5082670;28;45433;-79
2021/11/26 09:50:44;;;;;;;;;13.75;9.75;;;;;8.34;61.38;100212.97;5081864;27;45288;-79
2021/11/26 09:53:16;;;;;;;;;14.50;12.50;;;;;8.38;61.57;100206.72;5097794;27;45263;-79
2021/11/26 09:55:44;;;;;;;;;9.00;8.25;;;;;8.42;60.97;100197.00;5087224;27;46600;-78
2021/11/26 09:58:11;;;;;;;;;12.75;9.00;;;;;8.49;61.30;100195.91;5088407;27;48341;-79
2021/11/26 10:00:37;;;;;;;;;8.00;8.00;;;;;8.53;61.17;100187.03;5082159;28;45820;-79
2021/11/26 10:03:02;;;;;;;;;9.00;9.00;;;;;8.55;60.70;100174.72;5079382;27;45547;-78
2021/11/26 10:05:33;;;;;;;;;10.25;8.25;;;;;8.63;60.21;100176.25;5081156;28;46418;-78
2021/11/26 10:07:59;;;;;;;;;13.50;8.00;;;;;8.69;60.25;100169.97;5071871;27;45618;-79
2021/11/26 10:10:28;;;;;;;;;10.25;7.00;;;;;8.74;59.78;100171.50;5081188;28;45424;-79
2021/11/26 10:13:15;;;;;;;;;11.00;8.75;;;;;8.78;60.17;100167.03;5081760;27;45348;-79
2021/11/26 10:15:43;;;;;;;;;8.50;8.50;;;;;8.84;59.96;100158.94;5073129;27;46985;-79
2021/11/26 10:18:16;;;;;;;;;11.00;9.50;;;;;8.91;60.30;100162.22;5080843;27;47723;-80
2021/11/26 10:20:59;;;;;;;;;10.25;9.50;;;;;8.95;59.73;100153.34;5066253;28;45470;-80
2021/11/26 10:23:31;;;;;;;;;12.50;7.75;;;;;8.97;60.11;100145.41;5076914;27;45271;-79
2021/11/26 10:26:11;;;;;;;;;10.25;7.25;;;;;8.99;59.58;100123.47;5098337;27;47100;-81
2021/11/26 10:28:38;;;;;;;;;9.00;8.25;;;;;8.98;59.65;100113.91;5064832;28;47883;-81
2021/11/26 10:31:04;;;;;;;;;10.00;8.25;;;;;8.99;59.67;100105.13;5082339;27;45200;-81
2021/11/26 10:33:34;;;;;;;;;8.25;6.50;;;;;9.03;59.10;100097.16;5080283;28;45169;-80
2021/11/26 10:36:01;;;;;;;;;7.50;6.75;;;;;9.04;59.37;100088.38;5081828;27;45255;-80
2021/11/26 10:38:35;;;;;;;;;6.25;6.25;;;;;9.06;58.47;100073.44;5074023;27;45488;-80
2021/11/26 10:41:07;;;;;;;;;6.75;6.00;;;;;9.06;58.75;100062.97;5065299;28;45444;-81
2021/11/26 10:49:09;;;;;;;;;7.00;4.75;;;;;9.05;57.85;100053.38;5080318;28;46135;-79
2021/11/26 10:57:23;;;;;;;;;5.75;5.25;;;;;9.06;57.70;100042.00;5095068;27;45279;-80
2021/11/26 10:59:43;;;;;;;;;7.50;6.25;;;;;9.09;57.10;100036.59;5070334;28;46335;-80
2021/11/26 11:02:09;;;;;;;;;7.00;7.00;;;;;9.11;57.66;100027.78;5095166;27;45314;-80
2021/11/26 11:04:36;;;;;;;;;5.00;5.00;;;;;9.15;57.48;100019.81;5077019;27;45253;-79
2021/11/26 11:07:03;;;;;;;;;7.00;4.50;;;;;9.13;57.66;100017.25;5095485;27;47457;-79
2021/11/26 11:09:46;;;;;;;;;10.25;6.25;;;;;9.19;57.01;100010.91;5080674;27;46472;-80
2021/11/26 11:12:14;;;;;;;;;6.75;5.25;;;;;9.21;57.33;99998.59;5088312;27;45459;-80
2021/11/26 11:14:52;;;;;;;;;2.00;2.00;;;;;9.23;57.19;99991.53;5079738;28;45448;-80
2021/11/26 11:17:19;;;;;;;;;5.00;4.00;;;;;9.25;57.11;99973.09;5080995;27;45391;-79
2021/11/26 11:19:45;;;;;;;;;5.50;4.00;;;;;9.29;57.43;99972.03;5080641;27;45526;-80
2021/11/26 11:22:10;;;;;;;;;4.00;3.50;;;;;9.28;57.28;99944.13;5078883;27;45795;-79
2021/11/26 11:24:35;;;;;;;;;6.00;5.50;;;;;9.31;57.44;99944.03;5081476;27;45251;-79
2021/11/26 11:27:01;;;;;;;;;6.25;4.25;;;;;9.36;57.44;99942.03;5080053;27;45456;-80
2021/11/26 11:29:27;;;;;;;;;4.25;4.25;;;;;9.38;57.43;99931.50;5075614;27;47671;-79
2021/11/26 11:31:56;;;;;;;;;9.75;5.75;;;;;9.42;56.91;99917.34;5074297;27;45222;-79
2021/11/26 11:34:26;;;;;;;;;6.50;5.50;;;;;9.49;57.59;99899.56;5081123;27;45488;-79